createdAt,value
2023-05-12T00:02:24.650Z,5.88
2023-05-12T00:04:54.074Z,5.71
2023-05-12T00:07:22.090Z,5.53
2023-05-12T00:09:50.115Z,5.35
2023-05-12T00:12:18.313Z,5.17
2023-05-12T00:14:46.237Z,5.08
2023-05-12T00:17:14.290Z,4.89
2023-05-12T00:19:44.395Z,5.23
2023-05-12T00:22:12.535Z,5.85
2023-05-12T00:24:40.553Z,6.23
2023-05-12T00:27:09.033Z,5.99
2023-05-12T00:29:37.271Z,5.62
2023-05-12T00:32:05.750Z,6.08
2023-05-12T00:34:34.302Z,5.93
2023-05-12T00:37:02.491Z,5.28
2023-05-12T00:39:30.420Z,5.00
2023-05-12T00:42:00.253Z,4.82
2023-05-12T00:44:28.137Z,4.81
2023-05-12T00:46:56.513Z,4.78
2023-05-12T00:49:26.963Z,4.78
2023-05-12T00:51:56.212Z,4.70
2023-05-12T00:54:25.584Z,4.74
2023-05-12T00:56:53.632Z,4.77
2023-05-12T00:59:22.250Z,4.78
2023-05-12T01:01:51.061Z,4.76
2023-05-12T01:04:19.177Z,4.73
2023-05-12T01:06:58.669Z,4.74
2023-05-12T01:09:27.326Z,4.74
2023-05-12T01:11:56.178Z,4.76
2023-05-12T01:14:24.138Z,4.76
2023-05-12T01:16:55.303Z,4.79
2023-05-12T01:19:41.799Z,4.80
2023-05-12T01:22:11.611Z,4.77
2023-05-12T01:24:50.215Z,4.64
2023-05-12T01:27:20.884Z,4.75
2023-05-12T01:29:49.504Z,4.79
2023-05-12T01:32:19.189Z,4.85
2023-05-12T01:34:47.221Z,4.86
2023-05-12T01:37:15.463Z,4.86
2023-05-12T01:39:44.010Z,4.93
2023-05-12T01:42:13.492Z,4.91
2023-05-12T01:44:41.568Z,5.08
2023-05-12T01:47:11.609Z,5.09
2023-05-12T01:49:39.950Z,5.44
2023-05-12T01:52:08.398Z,5.56
2023-05-12T01:54:36.821Z,5.35
2023-05-12T01:57:05.860Z,5.32
2023-05-12T01:59:34.984Z,5.34
2023-05-12T02:02:04.645Z,5.14
2023-05-12T02:04:33.061Z,5.23
2023-05-12T02:07:02.278Z,5.37
2023-05-12T02:09:30.509Z,5.44
2023-05-12T02:11:59.334Z,5.55
2023-05-12T02:14:27.549Z,5.51
2023-05-12T02:16:56.670Z,5.61
2023-05-12T02:19:25.695Z,5.78
2023-05-12T02:21:58.644Z,6.29
2023-05-12T02:24:27.237Z,6.75
2023-05-12T02:26:55.218Z,6.59
2023-05-12T02:29:23.460Z,6.88
2023-05-12T02:31:52.117Z,6.57
2023-05-12T02:34:20.872Z,6.17
2023-05-12T02:36:48.681Z,6.41
2023-05-12T02:39:18.107Z,6.54
2023-05-12T02:41:46.692Z,6.58
2023-05-12T02:44:16.932Z,6.74
2023-05-12T02:46:45.391Z,6.74
2023-05-12T02:49:13.963Z,6.61
2023-05-12T02:51:42.099Z,6.52
2023-05-12T02:54:10.120Z,6.63
2023-05-12T02:56:38.489Z,6.94
2023-05-12T02:59:06.501Z,7.12
2023-05-12T03:01:34.796Z,7.39
2023-05-12T03:04:03.225Z,7.58
2023-05-12T03:06:31.300Z,7.73
2023-05-12T03:09:00.213Z,7.68
2023-05-12T03:11:28.602Z,7.81
2023-05-12T03:13:56.604Z,7.88
2023-05-12T03:16:24.695Z,7.88
2023-05-12T03:18:53.132Z,8.19
2023-05-12T03:21:21.120Z,8.35
2023-05-12T03:23:49.196Z,8.32
2023-05-12T03:26:17.542Z,8.47
2023-05-12T03:28:45.571Z,8.82
2023-05-12T03:31:13.634Z,8.98
2023-05-12T03:33:42.058Z,9.14
2023-05-12T03:36:10.644Z,9.29
2023-05-12T03:38:38.662Z,9.48
2023-05-12T03:41:07.647Z,9.73
2023-05-12T03:43:36.361Z,9.96
2023-05-12T03:46:04.761Z,10.19
2023-05-12T03:48:33.218Z,10.44
2023-05-12T03:51:01.218Z,10.68
2023-05-12T03:53:29.351Z,10.88
2023-05-12T03:55:58.159Z,11.03
2023-05-12T03:58:27.103Z,11.35
2023-05-12T04:00:57.492Z,11.81
2023-05-12T04:03:26.318Z,12.01
2023-05-12T04:06:04.691Z,12.17
2023-05-12T04:08:33.469Z,12.63
2023-05-12T04:11:02.701Z,12.74
2023-05-12T04:13:34.316Z,13.24
2023-05-12T04:16:02.769Z,13.44
2023-05-12T04:18:30.881Z,13.64
2023-05-12T04:20:58.815Z,14.21
2023-05-12T04:23:27.509Z,14.37
2023-05-12T04:25:55.628Z,14.82
2023-05-12T04:28:23.707Z,15.25
2023-05-12T04:30:52.098Z,15.56
2023-05-12T04:33:22.345Z,15.94
2023-05-12T04:35:50.323Z,15.90
2023-05-12T04:38:18.555Z,16.24
2023-05-12T04:40:46.593Z,16.22
2023-05-12T04:45:46.380Z,17.22
2023-05-12T04:48:14.436Z,17.47
2023-05-12T04:50:42.904Z,17.69
2023-05-12T04:53:11.779Z,17.97
2023-05-12T04:55:39.930Z,18.15
2023-05-12T04:58:07.963Z,18.29
2023-05-12T05:00:36.609Z,19.06
2023-05-12T05:03:04.781Z,19.45
2023-05-12T05:05:33.936Z,19.20
2023-05-12T05:08:06.826Z,19.73
2023-05-12T05:10:35.789Z,20.24
2023-05-12T05:13:04.129Z,20.59
2023-05-12T05:15:32.359Z,20.90
2023-05-12T05:18:01.903Z,21.17
2023-05-12T05:20:33.076Z,20.48
2023-05-12T05:23:01.475Z,20.98
2023-05-12T05:25:29.644Z,21.15
2023-05-12T05:27:58.481Z,21.36
2023-05-12T05:30:26.535Z,21.75
2023-05-12T05:32:54.676Z,21.92
2023-05-12T05:35:23.191Z,22.58
2023-05-12T05:37:54.002Z,21.64
2023-05-12T05:40:23.784Z,22.95
2023-05-12T05:42:52.475Z,22.47
2023-05-12T05:45:20.684Z,23.52
2023-05-12T05:47:50.381Z,24.19
2023-05-12T05:50:18.404Z,24.55
2023-05-12T05:52:46.817Z,24.92
2023-05-12T05:55:15.416Z,25.02
2023-05-12T05:57:43.580Z,24.87
2023-05-12T06:00:12.868Z,25.02
2023-05-12T06:02:43.008Z,25.29
2023-05-12T06:05:14.440Z,25.42
2023-05-12T06:07:42.477Z,25.91
2023-05-12T06:10:10.502Z,26.18
2023-05-12T06:12:40.917Z,25.52
2023-05-12T06:15:09.316Z,26.30
2023-05-12T06:17:37.340Z,27.12
2023-05-12T06:20:06.966Z,27.15
2023-05-12T06:22:37.820Z,26.54
2023-05-12T06:25:06.532Z,26.95
2023-05-12T06:27:34.648Z,27.41
2023-05-12T06:30:02.809Z,27.85
2023-05-12T06:32:33.607Z,28.25
2023-05-12T06:35:01.647Z,27.91
2023-05-12T06:37:31.195Z,27.31
2023-05-12T06:39:59.442Z,27.10
2023-05-12T06:42:27.572Z,27.44
2023-05-12T06:44:56.795Z,27.02
2023-05-12T06:47:25.214Z,27.58
2023-05-12T06:49:53.289Z,28.91
2023-05-12T06:52:24.208Z,28.36
2023-05-12T06:54:52.718Z,24.85
2023-05-12T06:57:20.608Z,25.82
2023-05-12T06:59:48.887Z,27.34
2023-05-12T07:02:17.465Z,26.67
2023-05-12T07:04:45.462Z,26.02
2023-05-12T07:07:13.392Z,26.72
2023-05-12T07:09:42.820Z,24.46
2023-05-12T07:12:10.881Z,26.57
2023-05-12T07:14:38.784Z,26.12
2023-05-12T07:17:07.025Z,27.00
2023-05-12T07:19:35.929Z,28.88
2023-05-12T07:22:03.918Z,29.26
2023-05-12T07:24:32.368Z,28.36
2023-05-12T07:27:00.366Z,28.91
2023-05-12T07:29:28.462Z,26.50
2023-05-12T07:31:57.074Z,29.38
2023-05-12T07:34:25.044Z,30.43
2023-05-12T07:36:53.068Z,31.10
2023-05-12T07:39:24.046Z,30.25
2023-05-12T07:41:53.284Z,24.60
2023-05-12T07:44:21.728Z,26.29
2023-05-12T07:46:49.777Z,27.69
2023-05-12T07:49:17.840Z,29.24
2023-05-12T07:51:46.228Z,28.89
2023-05-12T07:54:14.112Z,30.96
2023-05-12T07:56:42.127Z,29.01
2023-05-12T07:59:11.213Z,27.48
2023-05-12T08:01:39.276Z,28.37
2023-05-12T08:04:07.963Z,26.92
2023-05-12T08:06:36.009Z,29.83
2023-05-12T08:09:04.408Z,30.22
2023-05-12T08:11:33.039Z,28.75
2023-05-12T08:14:01.084Z,27.94
2023-05-12T08:16:29.345Z,27.92
2023-05-12T08:18:59.158Z,28.22
2023-05-12T08:21:29.040Z,29.55
2023-05-12T08:23:57.817Z,30.44
2023-05-12T08:26:25.758Z,30.08
2023-05-12T08:28:53.644Z,26.08
2023-05-12T08:31:22.252Z,26.90
2023-05-12T08:34:02.763Z,31.73
2023-05-12T08:36:37.746Z,30.72
2023-05-12T08:39:06.105Z,27.65
2023-05-12T08:41:58.914Z,29.46
2023-05-12T08:44:27.829Z,26.53
2023-05-12T08:46:58.579Z,26.84
2023-05-12T08:49:29.899Z,28.42
2023-05-12T08:52:01.813Z,27.14
2023-05-12T08:54:30.342Z,25.16
2023-05-12T08:59:31.419Z,22.87
2023-05-12T09:02:04.741Z,25.75
2023-05-12T09:04:33.461Z,26.56
2023-05-12T09:07:02.179Z,26.74
2023-05-12T09:09:33.099Z,25.59
2023-05-12T09:12:03.343Z,26.71
2023-05-12T09:14:35.292Z,27.53
2023-05-12T09:17:05.186Z,23.52
2023-05-12T09:19:34.730Z,22.12
2023-05-12T09:22:02.687Z,20.73
2023-05-12T09:24:39.056Z,23.37
2023-05-12T09:27:07.886Z,28.42
2023-05-12T09:29:45.125Z,26.47
2023-05-12T09:32:17.050Z,29.33
2023-05-12T09:34:45.750Z,28.93
2023-05-12T09:37:15.508Z,31.97
2023-05-12T09:39:44.993Z,25.06
2023-05-12T09:42:13.431Z,24.95
2023-05-12T09:44:42.390Z,22.96
2023-05-12T09:47:10.974Z,21.21
2023-05-12T09:49:39.364Z,27.28
2023-05-12T09:52:09.663Z,28.61
2023-05-12T09:54:40.240Z,26.51
2023-05-12T09:57:13.136Z,23.99
2023-05-12T09:59:43.649Z,22.83
2023-05-12T10:02:16.749Z,21.74
2023-05-12T10:04:51.110Z,30.17
2023-05-12T10:07:26.412Z,34.18
2023-05-12T10:09:58.890Z,28.20
2023-05-12T10:12:27.488Z,25.07
2023-05-12T10:14:57.087Z,26.64
2023-05-12T10:17:27.164Z,27.83
2023-05-12T10:19:56.347Z,25.31
2023-05-12T10:22:25.566Z,23.73
2023-05-12T10:24:56.359Z,23.08
2023-05-12T10:27:26.170Z,23.43
2023-05-12T10:29:55.159Z,23.76
2023-05-12T10:32:23.169Z,23.95
2023-05-12T10:34:52.467Z,24.81
2023-05-12T10:37:24.275Z,24.69
2023-05-12T10:39:53.376Z,23.26
2023-05-12T10:42:26.812Z,21.34
2023-05-12T10:45:02.042Z,20.56
2023-05-12T10:47:39.227Z,20.68
2023-05-12T10:50:08.451Z,20.98
2023-05-12T10:52:36.614Z,27.68
2023-05-12T10:55:04.910Z,23.29
2023-05-12T10:57:34.534Z,22.35
2023-05-12T11:00:13.719Z,21.75
2023-05-12T11:02:52.489Z,24.11
2023-05-12T11:05:22.196Z,22.84
2023-05-12T11:07:52.387Z,24.04
2023-05-12T11:10:21.904Z,25.16
2023-05-12T11:12:51.035Z,26.01
2023-05-12T11:15:19.644Z,25.53
2023-05-12T11:17:47.732Z,28.02
2023-05-12T11:20:28.075Z,24.51
2023-05-12T11:22:57.831Z,23.14
2023-05-12T11:25:28.732Z,22.66
2023-05-12T11:27:57.106Z,24.79
2023-05-12T11:30:25.150Z,22.56
2023-05-12T11:33:04.267Z,21.25
2023-05-12T11:35:32.848Z,21.36
2023-05-12T11:38:03.208Z,20.85
2023-05-12T11:40:31.023Z,20.69
2023-05-12T11:43:09.591Z,21.01
2023-05-12T11:45:38.079Z,20.97
2023-05-12T11:48:09.211Z,20.91
2023-05-12T11:50:40.230Z,20.98
2023-05-12T11:53:17.625Z,21.69
2023-05-12T11:55:56.988Z,22.49
2023-05-12T11:58:27.540Z,22.23
2023-05-12T12:00:57.506Z,22.17
2023-05-12T12:03:26.139Z,22.46
2023-05-12T12:06:03.006Z,22.46
2023-05-12T12:08:32.214Z,23.32
2023-05-12T12:11:02.745Z,23.66
2023-05-12T12:13:32.633Z,23.00
2023-05-12T12:16:00.424Z,22.78
2023-05-12T12:18:28.427Z,22.50
2023-05-12T12:20:56.806Z,21.46
2023-05-12T12:23:25.320Z,21.03
2023-05-12T12:25:53.270Z,20.66
2023-05-12T12:28:21.720Z,20.61
2023-05-12T12:30:49.653Z,21.00
2023-05-12T12:33:20.165Z,21.83
2023-05-12T12:35:49.804Z,21.35
2023-05-12T12:38:17.719Z,21.08
2023-05-12T12:40:45.904Z,21.30
2023-05-12T12:43:14.472Z,21.82
2023-05-12T12:45:42.743Z,21.60
2023-05-12T12:48:10.768Z,20.84
2023-05-12T12:50:39.774Z,21.06
2023-05-12T12:53:08.040Z,21.05
2023-05-12T12:55:36.227Z,20.67
2023-05-12T12:58:04.703Z,20.56
2023-05-12T13:00:32.650Z,20.50
2023-05-12T13:03:01.389Z,20.73
2023-05-12T13:05:29.808Z,20.64
2023-05-12T13:07:58.011Z,21.10
2023-05-12T13:10:26.360Z,21.31
2023-05-12T13:12:54.892Z,21.86
2023-05-12T13:15:23.209Z,21.99
2023-05-12T13:17:52.105Z,21.95
2023-05-12T13:20:20.769Z,22.07
2023-05-12T13:22:49.076Z,22.34
2023-05-12T13:25:17.243Z,22.57
2023-05-12T13:27:46.025Z,22.51
2023-05-12T13:30:14.400Z,22.95
2023-05-12T13:32:42.733Z,22.90
2023-05-12T13:35:11.206Z,23.12
2023-05-12T13:37:39.242Z,23.36
2023-05-12T13:40:07.981Z,23.31
2023-05-12T13:42:36.643Z,23.68
2023-05-12T13:45:05.349Z,24.96
2023-05-12T13:47:33.871Z,25.25
2023-05-12T13:50:02.240Z,25.13
2023-05-12T13:52:31.829Z,26.21
2023-05-12T13:54:59.965Z,27.27
2023-05-12T13:57:28.349Z,27.52
2023-05-12T13:59:58.202Z,27.58
2023-05-12T14:02:26.215Z,27.72
2023-05-12T14:04:55.724Z,29.03
2023-05-12T14:07:23.731Z,29.56
2023-05-12T14:09:51.661Z,30.51
2023-05-12T14:12:20.111Z,29.59
2023-05-12T14:14:50.387Z,28.14
2023-05-12T14:17:19.068Z,26.10
2023-05-12T14:19:47.425Z,25.87
2023-05-12T14:22:25.153Z,24.29
2023-05-12T14:24:56.023Z,23.89
2023-05-12T14:27:24.293Z,24.68
2023-05-12T14:29:52.361Z,25.41
2023-05-12T14:32:20.785Z,27.24
2023-05-12T14:34:49.222Z,27.85
2023-05-12T14:37:17.262Z,26.14
2023-05-12T14:39:45.693Z,24.79
2023-05-12T14:42:13.829Z,23.86
2023-05-12T14:44:41.811Z,24.44
2023-05-12T14:47:10.049Z,25.16
2023-05-12T14:49:38.093Z,25.91
2023-05-12T14:52:06.872Z,24.53
2023-05-12T14:54:35.464Z,23.79
2023-05-12T14:57:04.375Z,25.62
2023-05-12T14:59:32.371Z,27.95
2023-05-12T15:02:00.821Z,27.04
2023-05-12T15:04:28.900Z,26.91
2023-05-12T15:06:56.997Z,27.87
2023-05-12T15:09:25.361Z,27.82
2023-05-12T15:11:53.520Z,26.57
2023-05-12T15:14:21.729Z,25.18
2023-05-12T15:16:50.285Z,23.93
2023-05-12T15:19:20.811Z,22.83
2023-05-12T15:21:49.325Z,22.48
2023-05-12T15:24:17.282Z,23.08
2023-05-12T15:26:45.293Z,22.80
2023-05-12T15:29:13.709Z,22.53
2023-05-12T15:31:41.714Z,23.65
2023-05-12T15:34:10.415Z,23.43
2023-05-12T15:36:39.078Z,22.33
2023-05-12T15:39:07.127Z,21.67
2023-05-12T15:41:35.226Z,21.51
2023-05-12T15:44:03.845Z,22.29
2023-05-12T15:46:32.012Z,23.30
2023-05-12T15:49:00.152Z,23.75
2023-05-12T15:51:29.185Z,24.49
2023-05-12T15:53:57.390Z,23.78
2023-05-12T15:56:25.444Z,23.02
2023-05-12T15:58:54.274Z,22.22
2023-05-12T16:01:22.944Z,21.87
2023-05-12T16:03:52.991Z,21.42
2023-05-12T16:06:22.139Z,20.82
2023-05-12T16:08:50.193Z,20.81
2023-05-12T16:11:18.587Z,20.59
2023-05-12T16:13:46.572Z,20.43
2023-05-12T16:16:14.658Z,20.49
2023-05-12T16:18:43.933Z,20.36
2023-05-12T16:21:13.145Z,20.13
2023-05-12T16:23:41.313Z,19.93
2023-05-12T16:26:09.877Z,20.09
2023-05-12T16:28:37.851Z,19.99
2023-05-12T16:31:06.103Z,19.96
2023-05-12T16:33:34.614Z,19.36
2023-05-12T16:36:02.740Z,19.74
2023-05-12T16:38:32.632Z,20.33
2023-05-12T16:41:01.146Z,19.63
2023-05-12T16:43:29.192Z,19.54
2023-05-12T16:46:01.693Z,19.55
2023-05-12T16:48:34.828Z,19.34
2023-05-12T16:51:05.769Z,18.85
2023-05-12T16:53:34.356Z,19.00
2023-05-12T16:56:03.215Z,18.68
2023-05-12T16:58:31.888Z,18.66
2023-05-12T17:01:01.447Z,17.82
2023-05-12T17:03:30.303Z,18.11
2023-05-12T17:05:58.540Z,17.61
2023-05-12T17:08:27.280Z,17.74
2023-05-12T17:10:55.411Z,17.64
2023-05-12T17:13:23.587Z,17.88
2023-05-12T17:15:52.472Z,17.77
2023-05-12T17:18:20.626Z,17.76
2023-05-12T17:20:48.590Z,17.59
2023-05-12T17:23:17.321Z,17.55
2023-05-12T17:25:45.664Z,17.53
2023-05-12T17:28:13.815Z,17.58
2023-05-12T17:30:43.389Z,17.38
2023-05-12T17:33:11.738Z,17.01
2023-05-12T17:35:39.813Z,16.52
2023-05-12T17:38:08.358Z,16.65
2023-05-12T17:40:36.408Z,16.57
2023-05-12T17:43:04.710Z,16.71
2023-05-12T17:45:33.684Z,16.57
2023-05-12T17:48:02.680Z,16.29
2023-05-12T17:50:30.869Z,16.24
2023-05-12T17:52:59.327Z,16.45
2023-05-12T17:55:27.597Z,16.30
2023-05-12T17:57:56.150Z,15.98
2023-05-12T18:00:25.358Z,16.12
2023-05-12T18:02:54.058Z,16.22
2023-05-12T18:05:22.400Z,15.91
2023-05-12T18:07:51.408Z,15.82
2023-05-12T18:10:20.101Z,15.78
2023-05-12T18:12:51.252Z,15.80
2023-05-12T18:15:23.616Z,15.69
2023-05-12T18:17:53.529Z,15.46
2023-05-12T18:20:22.807Z,15.19
2023-05-12T18:22:52.410Z,14.90
2023-05-12T18:25:20.957Z,14.76
2023-05-12T18:27:50.420Z,14.65
2023-05-12T18:30:21.550Z,14.77
2023-05-12T18:32:54.396Z,14.28
2023-05-12T18:35:27.637Z,14.39
2023-05-12T18:37:58.618Z,14.36
2023-05-12T18:40:29.415Z,14.23
2023-05-12T18:43:00.925Z,14.38
2023-05-12T18:45:29.833Z,14.10
2023-05-12T18:47:59.843Z,13.77
2023-05-12T18:50:30.757Z,14.03
2023-05-12T18:53:01.831Z,13.90
2023-05-12T18:55:31.378Z,13.54
2023-05-12T18:58:02.050Z,13.55
2023-05-12T19:00:34.522Z,13.38
2023-05-12T19:03:05.659Z,13.60
2023-05-12T19:05:35.195Z,13.09
2023-05-12T19:08:05.050Z,12.82
2023-05-12T19:10:33.514Z,12.92
2023-05-12T19:13:05.891Z,12.80
2023-05-12T19:15:37.804Z,12.82
2023-05-12T19:18:08.572Z,12.85
2023-05-12T19:20:39.361Z,12.65
2023-05-12T19:23:10.311Z,12.63
2023-05-12T19:25:39.310Z,12.82
2023-05-12T19:28:07.700Z,12.65
2023-05-12T19:30:38.314Z,12.72
2023-05-12T19:33:08.365Z,12.23
2023-05-12T19:35:37.185Z,12.15
2023-05-12T19:38:05.891Z,12.06
2023-05-12T19:40:35.078Z,12.16
2023-05-12T19:43:05.483Z,11.98
2023-05-12T19:45:33.771Z,11.77
2023-05-12T19:48:02.590Z,11.47
2023-05-12T19:50:31.503Z,11.56
2023-05-12T19:53:00.044Z,11.39
2023-05-12T19:55:28.341Z,11.35
2023-05-12T19:57:57.079Z,11.20
2023-05-12T20:00:27.132Z,11.33
2023-05-12T20:02:56.033Z,11.19
2023-05-12T20:05:24.993Z,10.94
2023-05-12T20:07:53.361Z,10.97
2023-05-12T20:10:21.859Z,11.13
2023-05-12T20:12:50.277Z,11.20
2023-05-12T20:15:18.550Z,11.13
2023-05-12T20:17:47.081Z,10.96
2023-05-12T20:20:15.268Z,10.98
2023-05-12T20:22:43.410Z,10.67
2023-05-12T20:25:16.376Z,11.13
2023-05-12T20:27:44.933Z,11.49
2023-05-12T20:30:13.815Z,11.07
2023-05-12T20:32:42.246Z,11.05
2023-05-12T20:35:10.433Z,10.61
2023-05-12T20:37:40.850Z,10.93
2023-05-12T20:40:09.708Z,11.07
2023-05-12T20:42:37.912Z,10.84
2023-05-12T20:45:07.052Z,10.79
2023-05-12T20:47:35.776Z,10.92
2023-05-12T20:50:05.969Z,10.59
2023-05-12T20:52:38.671Z,10.41
2023-05-12T20:55:07.561Z,10.36
2023-05-12T20:57:36.318Z,9.99
2023-05-12T21:00:04.722Z,10.84
2023-05-12T21:02:36.014Z,11.55
2023-05-12T21:05:04.578Z,10.72
2023-05-12T21:07:32.950Z,10.34
2023-05-12T21:10:01.182Z,10.31
2023-05-12T21:12:32.694Z,10.45
2023-05-12T21:15:00.827Z,10.42
2023-05-12T21:17:35.858Z,10.27
2023-05-12T21:20:04.318Z,10.00
2023-05-12T21:22:32.971Z,10.23
2023-05-12T21:25:01.235Z,10.30
2023-05-12T21:27:32.068Z,10.17
2023-05-12T21:30:00.468Z,10.13
2023-05-12T21:32:29.030Z,9.99
2023-05-12T21:34:57.545Z,9.80
2023-05-12T21:37:25.957Z,9.65
2023-05-12T21:39:54.221Z,9.38
2023-05-12T21:42:22.989Z,9.42
2023-05-12T21:44:51.946Z,9.11
2023-05-12T21:47:19.813Z,9.19
2023-05-12T21:49:47.933Z,9.15
2023-05-12T21:52:16.377Z,9.24
2023-05-12T21:54:44.333Z,9.09
2023-05-12T21:57:12.528Z,9.38
2023-05-12T21:59:40.857Z,9.38
2023-05-12T22:02:09.000Z,9.09
2023-05-12T22:04:37.464Z,8.82
2023-05-12T22:07:06.058Z,8.53
2023-05-12T22:09:34.021Z,9.21
2023-05-12T22:12:02.297Z,9.25
2023-05-12T22:14:30.188Z,8.99
2023-05-12T22:16:58.181Z,8.59
2023-05-12T22:19:26.572Z,8.36
2023-05-12T22:21:55.302Z,8.31
2023-05-12T22:24:23.356Z,8.78
2023-05-12T22:26:51.676Z,8.81
2023-05-12T22:29:19.701Z,8.67
2023-05-12T22:31:47.750Z,8.78
2023-05-12T22:34:16.175Z,8.76
2023-05-12T22:36:44.279Z,8.56
2023-05-12T22:39:14.061Z,8.39
2023-05-12T22:41:42.361Z,8.55
2023-05-12T22:44:10.225Z,8.51
2023-05-12T22:46:38.307Z,8.21
2023-05-12T22:49:06.591Z,7.94
2023-05-12T22:51:34.696Z,7.79
2023-05-12T22:54:02.571Z,8.51
2023-05-12T22:56:30.754Z,8.56
2023-05-12T22:58:58.889Z,8.46
2023-05-12T23:01:26.881Z,8.31
2023-05-12T23:03:55.304Z,8.13
2023-05-12T23:06:23.313Z,7.59
2023-05-12T23:08:51.396Z,8.19
2023-05-12T23:11:19.856Z,8.00
2023-05-12T23:13:47.811Z,8.44
2023-05-12T23:16:16.262Z,8.51
2023-05-12T23:18:44.751Z,8.79
2023-05-12T23:21:12.871Z,8.78
2023-05-12T23:23:40.977Z,9.20
2023-05-12T23:26:10.185Z,9.10
2023-05-12T23:28:38.213Z,8.50
2023-05-12T23:31:06.231Z,8.02
2023-05-12T23:33:34.737Z,7.61
2023-05-12T23:36:03.154Z,7.21
2023-05-12T23:38:31.515Z,7.16
2023-05-12T23:40:59.912Z,7.47
2023-05-12T23:43:28.411Z,7.77
2023-05-12T23:45:56.626Z,7.51
2023-05-12T23:48:25.094Z,7.54
2023-05-12T23:50:53.271Z,7.63
2023-05-12T23:53:21.324Z,7.07
2023-05-12T23:55:49.740Z,7.06
2023-05-12T23:58:17.647Z,7.77
